Time;durP1;ratioP1;P1;durP2;ratioP2;P2;SDS_P1;SDS_P2;PMS_P1;PMS_P2;Temp;Humidity;BMP_temperature;BMP_pressure;BME280_temperature;BME280_humidity;BME280_pressure;Samples;Min_cycle;Max_cycle;Signal;HPM_P1;HPM_P2
2023/03/25 00:00:38;;;;;;;4.40;1.23;;;;;;;8.76;68.76;99086.69;10131821;29;20535;-77
2023/03/25 00:05:41;;;;;;;8.02;2.10;;;;;;;8.67;69.18;99077.69;10140127;29;20116;-78
2023/03/25 00:10:44;;;;;;;3.15;1.10;;;;;;;8.53;69.58;99073.63;10144785;29;20119;-78
2023/03/25 00:15:48;;;;;;;3.65;1.10;;;;;;;8.29;69.86;99071.34;10155360;29;20048;-78
2023/03/25 00:20:53;;;;;;;1.58;1.00;;;;;;;8.64;68.68;99066.41;10136042;29;20045;-77
2023/03/25 00:25:59;;;;;;;2.58;1.00;;;;;;;8.91;67.65;99069.16;10152970;29;20649;-78
2023/03/25 00:31:05;;;;;;;2.13;1.08;;;;;;;8.54;68.61;99061.91;10157698;29;20111;-77
2023/03/25 00:36:12;;;;;;;2.28;0.88;;;;;;;8.77;67.71;99048.19;10153353;29;20106;-77
2023/03/25 00:41:21;;;;;;;2.25;0.93;;;;;;;8.67;68.27;99066.13;10153523;29;20054;-78
2023/03/25 00:46:27;;;;;;;1.90;0.75;;;;;;;8.40;69.10;99051.63;10132602;29;20052;-77
2023/03/25 00:51:32;;;;;;;6.00;0.90;;;;;;;8.49;68.77;99055.31;10135228;29;20082;-77
2023/03/25 00:56:35;;;;;;;1.95;0.80;;;;;;;8.47;70.06;99055.44;10134773;29;20040;-78
2023/03/25 01:01:40;;;;;;;2.75;0.80;;;;;;;7.92;72.16;99056.00;10154385;29;20036;-77
2023/03/25 01:06:43;;;;;;;6.68;1.40;;;;;;;8.13;72.65;99061.22;10136241;29;20124;-78
2023/03/25 01:11:47;;;;;;;1.90;1.33;;;;;;;7.77;75.30;99061.91;10147671;29;20054;-78
2023/03/25 01:16:51;;;;;;;2.80;1.23;;;;;;;7.78;76.04;99058.25;10151219;29;20086;-77
2023/03/25 01:21:54;;;;;;;3.40;1.90;;;;;;;7.63;76.23;99053.31;10150084;29;20064;-78
2023/03/25 01:26:57;;;;;;;4.20;1.90;;;;;;;7.88;75.98;99051.91;10150460;29;20043;-78
2023/03/25 01:32:05;;;;;;;4.72;1.92;;;;;;;7.77;76.13;99060.06;10154365;29;20040;-78
2023/03/25 01:37:08;;;;;;;3.28;1.85;;;;;;;7.95;74.65;99054.88;10136583;29;20052;-78
2023/03/25 01:42:12;;;;;;;3.67;2.20;;;;;;;8.02;74.27;99060.53;10150129;29;20388;-77
2023/03/25 01:47:17;;;;;;;2.70;1.33;;;;;;;7.81;74.67;99058.78;10142906;29;20080;-78
2023/03/25 01:52:24;;;;;;;3.35;1.90;;;;;;;8.27;73.28;99054.59;10141182;29;20605;-78
2023/03/25 01:57:29;;;;;;;2.33;2.05;;;;;;;8.17;72.69;99069.78;10136758;29;20524;-78
2023/03/25 02:02:35;;;;;;;2.60;2.00;;;;;;;7.81;73.28;99072.16;10122070;29;20083;-78
2023/03/25 02:07:41;;;;;;;3.28;2.20;;;;;;;8.24;72.73;99043.34;10146114;29;20056;-77
2023/03/25 02:12:45;;;;;;;3.08;1.90;;;;;;;7.65;75.17;99047.81;10147369;29;20477;-77
2023/03/25 02:18:02;;;;;;;5.72;2.38;;;;;;;7.58;76.43;99052.88;10148100;29;20052;-77
2023/03/25 02:23:56;;;;;;;6.47;2.50;;;;;;;7.85;75.05;99041.50;10131100;29;20044;-77
2023/03/25 02:29:09;;;;;;;4.75;1.88;;;;;;;7.67;73.99;99048.50;10145151;29;20063;-78
2023/03/25 02:34:38;;;;;;;9.63;2.00;;;;;;;7.59;73.35;99035.00;10156105;29;20068;-78
2023/03/25 02:39:47;;;;;;;8.02;2.40;;;;;;;7.77;71.89;99033.34;10139687;29;20049;-77
2023/03/25 02:44:56;;;;;;;3.33;1.17;;;;;;;7.67;71.22;99041.34;10147353;29;20053;-78
2023/03/25 02:50:06;;;;;;;5.43;1.77;;;;;;;7.62;71.19;99021.34;10169461;29;20444;-78
2023/03/25 02:55:13;;;;;;;8.75;1.67;;;;;;;7.99;69.92;99034.06;10171702;29;20077;-78
2023/03/25 03:00:22;;;;;;;4.68;1.80;;;;;;;7.95;70.64;99026.31;10132142;29;20055;-78
2023/03/25 03:05:27;;;;;;;11.02;2.05;;;;;;;7.41;72.89;99022.31;10160427;29;20055;-77
2023/03/25 03:10:40;;;;;;;8.23;2.50;;;;;;;7.62;72.47;99021.34;10161732;29;20044;-78
2023/03/25 03:15:52;;;;;;;5.25;1.90;;;;;;;7.54;73.40;99016.69;10148273;29;20063;-78
2023/03/25 03:20:59;;;;;;;6.05;2.17;;;;;;;7.91;72.79;99022.22;10147714;29;20047;-77
2023/03/25 03:26:10;;;;;;;3.85;1.60;;;;;;;7.39;74.91;99024.28;10153033;29;20512;-77
2023/03/25 03:31:23;;;;;;;8.73;2.22;;;;;;;7.30;74.13;99022.44;10136289;29;20083;-77
2023/03/25 03:36:49;;;;;;;7.05;2.55;;;;;;;7.44;73.24;99022.03;10151804;29;20052;-77
2023/03/25 03:42:01;;;;;;;10.63;2.50;;;;;;;7.50;72.12;99024.16;10147214;29;20045;-78
2023/03/25 03:47:09;;;;;;;4.45;2.38;;;;;;;7.58;72.54;99023.47;10153456;29;20083;-77
2023/03/25 03:52:16;;;;;;;5.60;1.88;;;;;;;7.13;74.25;99036.41;10149550;29;20040;-77
2023/03/25 03:57:26;;;;;;;8.52;2.75;;;;;;;7.01;78.29;99035.69;10154374;29;20071;-78
2023/03/25 04:02:38;;;;;;;2.42;2.20;;;;;;;6.48;80.35;99033.13;10157054;29;20052;-78
2023/03/25 04:07:45;;;;;;;12.55;4.03;;;;;;;6.88;80.37;99029.72;10164282;29;20069;-78
2023/03/25 04:12:52;;;;;;;6.20;2.67;;;;;;;6.82;79.63;99028.41;10154272;29;20095;-79
2023/03/25 04:17:56;;;;;;;5.53;3.20;;;;;;;6.91;79.61;99021.44;10155608;29;20048;-79
2023/03/25 04:22:59;;;;;;;7.47;2.00;;;;;;;6.53;79.78;99037.09;10162402;29;20036;-78
2023/03/25 04:28:03;;;;;;;8.70;3.08;;;;;;;6.92;79.56;99040.00;10161505;29;20047;-78
2023/03/25 04:33:06;;;;;;;7.95;3.35;;;;;;;6.96;79.21;99036.06;10148992;23;20048;-75
2023/03/25 04:38:10;;;;;;;8.38;2.50;;;;;;;7.02;78.47;99029.34;10151284;29;20096;-76
2023/03/25 04:43:16;;;;;;;4.82;2.28;;;;;;;7.11;78.08;99051.75;10159902;29;20047;-75
2023/03/25 04:48:22;;;;;;;4.50;2.40;;;;;;;7.07;77.41;99040.47;10148329;29;20037;-75
2023/03/25 04:53:25;;;;;;;5.30;2.00;;;;;;;7.09;76.02;99035.84;10144814;29;20457;-76
2023/03/25 04:58:30;;;;;;;6.15;2.22;;;;;;;7.17;74.81;99035.19;10133537;29;20492;-77
2023/03/25 05:03:32;;;;;;;8.93;2.83;;;;;;;7.44;73.80;99018.53;10142317;29;20123;-76
2023/03/25 05:08:35;;;;;;;8.20;2.15;;;;;;;7.30;72.85;99014.41;10146043;29;20049;-75
2023/03/25 05:13:39;;;;;;;5.63;2.00;;;;;;;7.25;71.88;99016.66;10146507;29;20041;-76
2023/03/25 05:18:42;;;;;;;4.18;2.17;;;;;;;7.54;71.37;99016.69;10147929;29;20606;-75
2023/03/25 05:23:45;;;;;;;2.10;1.90;;;;;;;7.02;71.45;99018.66;10159823;29;20082;-76
2023/03/25 05:28:50;;;;;;;6.70;1.75;;;;;;;7.35;70.57;99014.84;10147276;29;20044;-75
2023/03/25 05:33:53;;;;;;;3.58;2.13;;;;;;;7.37;71.94;99014.72;10150107;29;20108;-75
2023/03/25 05:38:57;;;;;;;7.25;2.40;;;;;;;7.47;72.44;99021.75;10154392;29;20041;-75
2023/03/25 05:44:01;;;;;;;6.13;2.13;;;;;;;6.93;72.62;99047.03;10155980;29;20112;-75
2023/03/25 05:49:04;;;;;;;7.60;2.20;;;;;;;6.92;72.30;99033.81;10152089;29;20040;-77
2023/03/25 05:54:09;;;;;;;7.93;1.92;;;;;;;6.97;71.69;99059.13;10154291;29;20073;-76
2023/03/25 05:59:15;;;;;;;7.68;2.90;;;;;;;7.23;71.28;99040.81;10145589;29;20056;-76
2023/03/25 06:04:18;;;;;;;4.75;2.38;;;;;;;7.45;70.83;99050.44;10148391;29;20056;-76
2023/03/25 06:09:21;;;;;;;5.93;2.70;;;;;;;7.39;71.10;99044.81;10155166;29;20397;-75
2023/03/25 06:14:25;;;;;;;4.85;2.00;;;;;;;7.21;71.91;99045.47;10158433;29;20075;-77
2023/03/25 06:19:28;;;;;;;7.80;2.17;;;;;;;6.80;72.63;99055.22;10155367;29;20566;-76
2023/03/25 06:24:31;;;;;;;5.32;1.80;;;;;;;7.00;73.12;99050.03;10162629;29;20064;-76
2023/03/25 06:29:37;;;;;;;4.75;2.13;;;;;;;6.29;79.53;99048.03;10162102;29;20091;-77
2023/03/25 06:34:41;;;;;;;5.95;2.17;;;;;;;6.16;82.08;99082.03;10163707;29;20412;-74
2023/03/25 06:39:48;;;;;;;5.65;3.00;;;;;;;6.26;83.40;99052.78;10156104;29;20138;-75
2023/03/25 06:44:56;;;;;;;6.25;2.83;;;;;;;6.51;81.91;99073.72;10133106;29;20460;-76
2023/03/25 06:50:21;;;;;;;6.35;2.63;;;;;;;6.78;80.43;99070.53;10144355;29;20051;-75
2023/03/25 06:55:24;;;;;;;9.65;2.75;;;;;;;6.74;79.39;99047.72;10158739;29;20075;-74
2023/03/25 07:00:28;;;;;;;7.57;2.15;;;;;;;6.44;78.42;99075.22;10153280;29;20128;-77
2023/03/25 07:05:31;;;;;;;6.15;1.92;;;;;;;7.04;76.21;99057.59;10158396;29;20041;-76
2023/03/25 07:10:34;;;;;;;7.93;2.00;;;;;;;6.72;84.58;99060.38;10158683;29;20045;-76
2023/03/25 07:15:38;;;;;;;4.95;1.58;;;;;;;6.88;78.66;99059.06;10159934;29;20040;-75
2023/03/25 07:20:42;;;;;;;5.38;1.98;;;;;;;7.05;77.71;99043.28;10154267;29;20045;-76
2023/03/25 07:25:48;;;;;;;4.78;1.55;;;;;;;6.98;76.73;99058.16;10163295;29;20069;-75
2023/03/25 07:30:53;;;;;;;4.38;1.73;;;;;;;6.84;76.69;99061.13;10160979;29;20047;-74
2023/03/25 07:35:56;;;;;;;3.28;1.83;;;;;;;7.25;77.07;99062.06;10138417;29;20040;-74
2023/03/25 07:40:59;;;;;;;3.75;1.90;;;;;;;6.99;78.72;99067.00;10146693;29;20096;-75
2023/03/25 07:46:03;;;;;;;6.43;2.13;;;;;;;6.82;80.59;99066.59;10156819;29;20044;-76
2023/03/25 07:51:07;;;;;;;9.95;2.92;;;;;;;6.99;79.96;99065.19;10130556;29;20112;-76
2023/03/25 07:56:10;;;;;;;5.97;2.70;;;;;;;6.93;79.63;99076.38;10153413;29;20048;-76
2023/03/25 08:01:14;;;;;;;3.72;2.55;;;;;;;6.95;80.56;99063.75;10134774;29;20051;-74
2023/03/25 08:06:17;;;;;;;4.18;2.10;;;;;;;6.84;80.65;99069.16;10156016;29;20471;-75
2023/03/25 08:11:20;;;;;;;8.40;4.35;;;;;;;7.42;79.18;99065.91;10156166;29;20072;-75
2023/03/25 08:16:25;;;;;;;8.43;3.08;;;;;;;7.33;79.05;99082.75;10146114;29;20049;-75
2023/03/25 08:21:28;;;;;;;7.50;3.53;;;;;;;7.41;77.48;99075.75;10098658;29;20423;-76
2023/03/25 08:26:34;;;;;;;12.90;3.03;;;;;;;7.95;76.81;99070.91;10094182;29;20479;-75
2023/03/25 08:31:39;;;;;;;10.80;3.30;;;;;;;7.97;74.57;99068.94;10101619;29;20636;-75
2023/03/25 08:36:42;;;;;;;5.63;2.35;;;;;;;7.51;74.85;99089.13;10088702;29;20064;-75
2023/03/25 08:41:45;;;;;;;10.20;3.78;;;;;;;7.70;74.85;99091.00;10107859;29;20566;-75
2023/03/25 08:46:49;;;;;;;8.30;3.40;;;;;;;7.42;74.72;99080.09;10101319;29;20189;-75
2023/03/25 08:51:52;;;;;;;11.25;3.55;;;;;;;7.70;73.67;99069.63;10108783;29;20247;-75
2023/03/25 08:56:55;;;;;;;7.30;2.90;;;;;;;7.75;72.52;99085.25;10120329;29;21612;-76
2023/03/25 09:01:59;;;;;;;7.75;3.03;;;;;;;7.62;72.75;99082.81;10096725;29;20075;-75
2023/03/25 09:07:03;;;;;;;8.27;3.30;;;;;;;7.59;70.62;99077.75;10111822;29;20055;-76
2023/03/25 09:12:14;;;;;;;7.65;3.20;;;;;;;7.97;69.42;99076.13;10109425;29;20075;-74
2023/03/25 09:17:18;;;;;;;5.93;3.85;;;;;;;7.33;70.36;99098.78;10097087;29;20048;-76
2023/03/25 09:22:21;;;;;;;5.40;3.25;;;;;;;7.60;68.31;99101.69;10097697;29;20059;-75
2023/03/25 09:27:23;;;;;;;11.00;4.35;;;;;;;8.56;66.03;99108.13;10083393;29;20060;-75
2023/03/25 09:32:28;;;;;;;7.72;3.55;;;;;;;7.99;66.45;99088.38;10118736;29;20208;-74
2023/03/25 09:37:30;;;;;;;13.30;4.25;;;;;;;8.12;66.12;99102.34;10119565;29;20048;-75
2023/03/25 09:42:54;;;;;;;7.35;2.67;;;;;;;8.38;63.88;99088.38;10119303;29;20045;-75
2023/03/25 09:48:04;;;;;;;3.72;2.88;;;;;;;9.57;62.67;99086.94;10126859;29;20052;-75
2023/03/25 09:53:19;;;;;;;5.85;2.58;;;;;;;9.45;60.46;99080.91;10131255;29;20059;-75
2023/03/25 09:58:28;;;;;;;9.63;3.13;;;;;;;8.60;60.57;99071.22;10121499;29;20056;-75
2023/03/25 10:03:37;;;;;;;5.10;2.17;;;;;;;8.90;60.85;99091.56;10106893;29;20567;-75
2023/03/25 10:08:53;;;;;;;5.90;2.03;;;;;;;8.72;61.84;99080.78;10121304;29;20059;-76
2023/03/25 10:14:04;;;;;;;10.27;2.63;;;;;;;8.34;62.77;99074.44;10132939;29;20067;-75
2023/03/25 10:19:23;;;;;;;5.75;2.80;;;;;;;8.42;62.00;99075.56;10132733;29;20060;-73
2023/03/25 10:24:31;;;;;;;7.68;3.00;;;;;;;8.88;61.90;99071.28;10098712;29;20048;-76
2023/03/25 10:29:38;;;;;;;6.85;2.88;;;;;;;8.79;61.95;99095.25;10117049;29;20048;-74
2023/03/25 10:34:48;;;;;;;7.53;2.72;;;;;;;8.12;65.44;99088.13;10109809;29;20045;-76
2023/03/25 10:39:51;;;;;;;8.52;3.72;;;;;;;7.80;70.29;99105.25;10111939;29;20048;-76
2023/03/25 10:44:54;;;;;;;9.13;3.75;;;;;;;7.94;68.92;99109.34;10116001;29;20515;-76
2023/03/25 10:49:59;;;;;;;9.80;3.40;;;;;;;8.32;69.07;99084.44;10114874;29;20043;-76
2023/03/25 10:55:03;;;;;;;6.10;2.90;;;;;;;8.31;67.78;99093.47;10090705;29;20586;-76
2023/03/25 11:00:13;;;;;;;4.65;3.05;;;;;;;8.10;69.50;99093.59;10115998;29;20056;-76
2023/03/25 11:05:20;;;;;;;7.70;4.28;;;;;;;8.23;71.00;99103.16;10111054;29;20056;-75
2023/03/25 11:10:25;;;;;;;8.38;3.78;;;;;;;8.48;68.96;99091.09;10118351;29;20192;-76
2023/03/25 11:15:31;;;;;;;5.20;3.30;;;;;;;8.91;65.73;99052.25;10102202;29;20131;-76
2023/03/25 11:20:40;;;;;;;6.28;3.17;;;;;;;9.39;63.44;99073.47;10102841;29;20048;-76
2023/03/25 11:25:43;;;;;;;10.23;3.60;;;;;;;9.48;63.22;99074.41;10094324;29;20048;-74
2023/03/25 11:31:16;;;;;;;5.45;2.55;;;;;;;9.23;64.12;99092.03;10107809;29;20044;-77
2023/03/25 11:36:27;;;;;;;11.15;4.70;;;;;;;7.39;75.85;99088.38;10110985;29;20145;-75
2023/03/25 11:41:32;;;;;;;7.47;5.07;;;;;;;6.27;88.28;99105.97;10112452;29;20520;-76
2023/03/25 11:46:42;;;;;;;12.40;6.18;;;;;;;6.69;88.17;99116.69;10110637;29;20160;-76
2023/03/25 11:51:47;;;;;;;8.88;5.28;;;;;;;7.60;84.01;99098.16;10106969;29;20468;-76
2023/03/25 11:56:50;;;;;;;6.30;4.80;;;;;;;8.13;80.06;99092.47;10118264;29;20051;-77
2023/03/25 12:02:02;;;;;;;10.27;3.72;;;;;;;8.18;78.30;99096.41;10123070;29;20044;-76
2023/03/25 12:07:09;;;;;;;9.30;3.50;;;;;;;8.34;76.28;99077.13;10124979;29;20093;-76
2023/03/25 12:12:31;;;;;;;6.00;2.80;;;;;;;9.51;71.94;99056.19;10111644;29;20189;-76
2023/03/25 12:17:44;;;;;;;5.32;2.42;;;;;;;9.79;67.90;99058.00;10109802;29;20056;-76
2023/03/25 12:23:01;;;;;;;9.85;2.72;;;;;;;10.64;66.30;99051.25;10107904;29;20056;-75
2023/03/25 12:28:36;;;;;;;6.05;2.13;;;;;;;10.28;66.05;99039.72;10106003;29;20051;-76
2023/03/25 12:33:50;;;;;;;6.55;3.00;;;;;;;9.14;67.61;99061.63;10117513;29;20052;-75
2023/03/25 12:39:08;;;;;;;8.20;3.05;;;;;;;7.87;74.71;99060.06;10108860;29;20060;-75
2023/03/25 12:44:30;;;;;;;6.85;3.78;;;;;;;7.87;76.72;99062.75;10114505;29;20063;-76
2023/03/25 12:49:49;;;;;;;8.35;3.40;;;;;;;8.22;74.08;99058.69;10121476;29;20051;-76
2023/03/25 12:55:03;;;;;;;4.57;2.78;;;;;;;8.03;75.15;99060.38;10117635;29;20056;-76
2023/03/25 13:00:27;;;;;;;6.30;2.47;;;;;;;6.90;84.12;99082.00;10114398;29;21692;-75
2023/03/25 13:05:37;;;;;;;6.85;2.92;;;;;;;7.38;85.70;99081.38;10123693;29;20060;-75
2023/03/25 13:10:43;;;;;;;5.43;2.40;;;;;;;8.74;80.33;99072.59;10114108;29;20052;-75
2023/03/25 13:15:50;;;;;;;7.32;2.65;;;;;;;8.77;77.09;99086.53;10116306;29;20056;-76
2023/03/25 13:21:04;;;;;;;6.43;2.67;;;;;;;8.68;74.70;99100.78;10110220;29;20059;-75
2023/03/25 13:26:21;;;;;;;6.53;2.45;;;;;;;8.04;76.69;99074.59;10108774;29;20058;-76
2023/03/25 13:31:29;;;;;;;4.57;2.15;;;;;;;7.86;78.63;99088.63;10115193;29;20463;-75
2023/03/25 13:36:36;;;;;;;1.60;1.50;;;;;;;8.01;75.58;99073.06;10104146;29;20445;-75
2023/03/25 13:41:43;;;;;;;5.55;1.48;;;;;;;8.10;74.26;99064.19;10112246;29;20056;-75
2023/03/25 13:46:50;;;;;;;1.70;1.13;;;;;;;8.09;73.73;99054.47;10101924;29;20044;-74
2023/03/25 13:51:53;;;;;;;6.75;2.22;;;;;;;9.89;71.25;99066.88;10104050;29;20051;-76
2023/03/25 13:57:19;;;;;;;5.07;1.80;;;;;;;9.45;69.83;99043.41;10090035;29;20131;-75
2023/03/25 14:02:41;;;;;;;7.82;2.42;;;;;;;9.54;66.81;99040.81;10114473;29;20677;-76
2023/03/25 14:08:06;;;;;;;4.95;1.40;;;;;;;9.05;70.14;99044.59;10114790;29;20659;-75
2023/03/25 14:13:14;;;;;;;8.57;2.38;;;;;;;8.75;70.90;99058.19;10121454;29;20079;-75
2023/03/25 14:18:19;;;;;;;5.28;2.08;;;;;;;8.26;74.53;99068.13;10120025;29;20093;-75
2023/03/25 14:23:23;;;;;;;6.90;2.50;;;;;;;7.14;82.84;99081.69;10100170;29;20066;-77
2023/03/25 14:28:37;;;;;;;7.70;3.53;;;;;;;7.47;85.54;99088.56;10107971;29;20068;-77
2023/03/25 14:34:12;;;;;;;11.45;2.15;;;;;;;6.88;85.55;99086.59;10107353;29;20054;-77
2023/03/25 14:39:38;;;;;;;2.67;1.98;;;;;;;7.15;84.75;99071.84;10114835;29;20432;-79
2023/03/25 14:44:48;;;;;;;8.02;3.17;;;;;;;7.63;83.84;99077.34;10131959;29;20056;-77
2023/03/25 14:49:55;;;;;;;10.40;4.22;;;;;;;8.05;81.37;99078.97;10121671;29;20055;-77
2023/03/25 14:55:01;;;;;;;7.88;3.35;;;;;;;7.35;83.95;99120.84;10126403;29;20432;-75
2023/03/25 15:00:12;;;;;;;6.32;3.78;;;;;;;7.10;88.93;99071.41;10135415;29;20111;-79
2023/03/25 15:05:18;;;;;;;10.55;4.20;;;;;;;6.92;87.90;99073.88;10139323;29;20732;-78
2023/03/25 15:10:26;;;;;;;5.35;3.53;;;;;;;6.89;87.54;99068.78;10134443;29;20672;-78
2023/03/25 15:15:51;;;;;;;8.45;3.13;;;;;;;6.60;87.48;99070.25;10127199;29;21781;-79
2023/03/25 15:21:01;;;;;;;11.05;2.50;;;;;;;6.86;87.66;99093.91;10130881;29;20062;-78
2023/03/25 15:26:10;;;;;;;12.85;2.10;;;;;;;6.92;88.62;99074.69;10126908;29;20770;-79
2023/03/25 15:31:36;;;;;;;9.30;2.70;;;;;;;7.16;86.33;99077.06;10117697;29;20040;-78
2023/03/25 15:36:52;;;;;;;9.40;2.50;;;;;;;7.09;86.98;99059.03;10126830;29;20058;-78
2023/03/25 15:42:17;;;;;;;5.43;1.77;;;;;;;7.11;86.89;99083.78;10112710;29;20103;-79
2023/03/25 15:47:44;;;;;;;10.02;2.13;;;;;;;6.97;87.71;99068.97;10122187;29;20111;-79
2023/03/25 15:53:28;;;;;;;8.90;1.98;;;;;;;6.70;90.37;99072.16;10137352;29;20066;-79
2023/03/25 15:58:51;;;;;;;11.70;2.10;;;;;;;6.72;94.38;99055.06;10138453;29;20139;-78
2023/03/25 16:04:01;;;;;;;9.73;2.63;;;;;;;6.78;93.38;99051.84;10139768;29;20139;-78
2023/03/25 16:09:06;;;;;;;8.93;2.78;;;;;;;7.24;90.43;99071.03;10135271;29;20052;-79
2023/03/25 16:14:12;;;;;;;8.13;3.30;;;;;;;7.39;89.32;99048.31;10129713;29;20452;-77
2023/03/25 16:19:20;;;;;;;9.80;1.98;;;;;;;7.37;87.60;99057.44;10125393;29;21249;-79
2023/03/25 16:24:28;;;;;;;6.10;1.05;;;;;;;7.00;83.94;99074.88;10125593;29;20615;-76
2023/03/25 16:29:31;;;;;;;8.85;1.70;;;;;;;7.30;82.37;99059.84;10109342;29;20246;-77
2023/03/25 16:34:40;;;;;;;2.45;1.27;;;;;;;7.26;80.73;99066.41;10115912;29;20052;-77
2023/03/25 16:39:43;;;;;;;1.73;0.73;;;;;;;7.33;81.12;99074.75;10119868;29;20127;-77
2023/03/25 16:44:47;;;;;;;7.28;2.08;;;;;;;7.47;82.22;99072.53;10122813;29;20052;-77
2023/03/25 16:49:55;;;;;;;5.00;1.13;;;;;;;6.74;81.89;99101.09;10123849;29;20161;-77
2023/03/25 16:55:40;;;;;;;2.47;1.02;;;;;;;6.46;81.74;99123.94;10120481;29;20143;-77
2023/03/25 17:00:43;;;;;;;3.20;0.82;;;;;;;6.59;81.79;99094.44;10107547;29;20508;-77
2023/03/25 17:06:04;;;;;;;2.80;0.90;;;;;;;6.88;81.17;99117.81;10127143;29;20079;-77
2023/03/25 17:11:08;;;;;;;2.88;0.90;;;;;;;6.58;80.92;99114.94;10103330;29;20167;-78
2023/03/25 17:16:12;;;;;;;2.80;0.70;;;;;;;6.75;78.85;99105.50;10122121;29;20058;-77
2023/03/25 17:21:26;;;;;;;2.53;0.63;;;;;;;6.82;78.57;99119.13;10118724;29;20115;-75
2023/03/25 17:26:33;;;;;;;3.50;1.13;;;;;;;6.88;78.12;99134.66;10127431;29;20052;-77
2023/03/25 17:31:38;;;;;;;5.40;0.90;;;;;;;6.92;78.07;99124.59;10123159;29;20056;-76
2023/03/25 17:36:46;;;;;;;2.45;0.63;;;;;;;6.97;77.50;99138.38;10115508;29;20428;-78
2023/03/25 17:41:54;;;;;;;5.50;1.13;;;;;;;7.38;77.46;99144.63;10125822;29;20188;-77
2023/03/25 17:46:57;;;;;;;8.13;1.23;;;;;;;6.87;79.93;99166.81;10100148;29;20044;-75
2023/03/25 17:52:01;;;;;;;9.60;1.48;;;;;;;6.47;85.31;99202.16;10104250;29;20056;-76
2023/03/25 17:57:09;;;;;;;12.48;1.90;;;;;;;5.73;98.17;99205.47;10126983;29;20092;-78
2023/03/25 18:02:13;;;;;;;3.90;0.70;;;;;;;5.28;97.26;99190.31;10104279;29;20491;-78
2023/03/25 18:07:20;;;;;;;2.70;0.50;;;;;;;4.91;96.63;99184.31;10126364;29;20052;-77
2023/03/25 18:12:24;;;;;;;1.30;0.55;;;;;;;5.10;93.94;99172.25;10118190;29;20067;-79
2023/03/25 18:17:27;;;;;;;4.00;0.70;;;;;;;5.23;92.41;99196.97;10117584;29;20475;-78
2023/03/25 18:22:31;;;;;;;11.30;1.10;;;;;;;5.49;91.46;99190.47;10120494;29;20056;-78
2023/03/25 18:27:34;;;;;;;4.00;0.68;;;;;;;5.61;90.66;99191.31;10115256;29;20439;-77
2023/03/25 18:32:45;;;;;;;3.47;0.83;;;;;;;5.43;90.57;99184.75;10124720;29;20655;-77
2023/03/25 18:37:50;;;;;;;3.35;0.88;;;;;;;5.69;88.20;99212.84;10135249;29;20287;-78
2023/03/25 18:42:53;;;;;;;3.33;0.93;;;;;;;5.71;86.41;99194.09;10105578;29;20135;-77
2023/03/25 18:47:56;;;;;;;3.22;0.70;;;;;;;5.45;85.81;99207.63;10122609;29;20609;-78
2023/03/25 18:53:00;;;;;;;4.50;1.15;;;;;;;5.36;84.40;99204.88;10128106;29;21101;-77
2023/03/25 18:58:04;;;;;;;1.88;0.80;;;;;;;5.64;83.99;99200.88;10136363;29;20133;-77
2023/03/25 19:03:07;;;;;;;2.47;0.82;;;;;;;5.71;82.85;99205.59;10132503;29;20058;-77
2023/03/25 19:08:17;;;;;;;0.70;0.43;;;;;;;5.38;82.34;99225.09;10133057;29;20056;-76
2023/03/25 19:13:20;;;;;;;6.30;2.15;;;;;;;5.78;81.56;99229.09;10129221;29;20052;-77
2023/03/25 19:18:25;;;;;;;6.43;0.90;;;;;;;5.80;82.66;99241.31;10125485;29;20508;-77
2023/03/25 19:23:30;;;;;;;4.30;0.95;;;;;;;5.95;81.38;99247.22;10127273;29;20092;-77
2023/03/25 19:28:33;;;;;;;1.95;0.63;;;;;;;5.81;81.11;99266.13;10120633;29;20052;-78
2023/03/25 19:33:36;;;;;;;3.28;0.98;;;;;;;5.56;82.15;99275.22;10123665;29;20074;-77
2023/03/25 19:38:41;;;;;;;2.45;0.80;;;;;;;5.98;81.52;99294.13;10129351;29;20056;-77
2023/03/25 19:43:44;;;;;;;3.65;1.10;;;;;;;5.96;81.38;99291.59;10097188;29;20097;-77
2023/03/25 19:48:47;;;;;;;1.42;0.73;;;;;;;6.10;80.50;99287.84;10114837;29;20076;-78
2023/03/25 19:53:51;;;;;;;7.50;1.40;;;;;;;5.68;83.05;99290.25;10115807;29;21269;-77
2023/03/25 19:58:54;;;;;;;7.30;1.30;;;;;;;5.83;82.54;99296.19;10121892;29;20075;-77
2023/03/25 20:03:57;;;;;;;3.42;1.00;;;;;;;5.77;82.82;99296.69;10113972;29;20131;-75
2023/03/25 20:09:01;;;;;;;5.40;1.60;;;;;;;5.76;82.29;99302.97;10118734;29;20047;-76
2023/03/25 20:14:05;;;;;;;5.97;1.70;;;;;;;5.78;82.67;99291.22;10124730;29;20052;-77
2023/03/25 20:19:08;;;;;;;4.85;1.50;;;;;;;6.08;82.10;99293.28;10118691;29;20063;-77
2023/03/25 20:24:12;;;;;;;2.53;1.10;;;;;;;5.85;82.78;99295.09;10120363;29;21307;-76
2023/03/25 20:29:16;;;;;;;5.72;1.80;;;;;;;6.05;82.48;99300.69;10122254;29;20056;-76
2023/03/25 20:34:19;;;;;;;3.28;1.38;;;;;;;5.89;82.59;99295.69;10111649;29;20144;-78
2023/03/25 20:39:23;;;;;;;4.90;2.08;;;;;;;5.88;83.15;99281.53;10124179;29;20518;-77
2023/03/25 20:44:26;;;;;;;7.40;2.25;;;;;;;5.91;82.85;99296.44;10123035;29;20051;-78
2023/03/25 20:49:29;;;;;;;7.78;2.22;;;;;;;6.17;82.18;99291.69;10124187;29;20064;-77
2023/03/25 20:54:33;;;;;;;7.65;2.38;;;;;;;6.21;81.97;99294.97;10124814;29;21289;-76
2023/03/25 20:59:36;;;;;;;5.03;1.58;;;;;;;5.91;82.13;99307.94;10127769;29;20107;-77
2023/03/25 21:04:38;;;;;;;7.15;1.85;;;;;;;6.33;81.64;99305.47;10117759;29;20055;-77
2023/03/25 21:09:43;;;;;;;4.70;2.10;;;;;;;6.26;81.77;99330.97;10121694;29;20180;-75
2023/03/25 21:14:46;;;;;;;6.18;1.83;;;;;;;6.31;81.51;99331.44;10123721;29;20669;-77
2023/03/25 21:19:49;;;;;;;4.32;1.60;;;;;;;6.35;81.45;99332.03;10123111;29;20053;-76
2023/03/25 21:24:53;;;;;;;5.85;2.22;;;;;;;6.57;80.51;99340.00;10115577;29;20060;-77
2023/03/25 21:29:56;;;;;;;4.07;1.67;;;;;;;6.46;81.36;99339.19;10120856;29;20051;-75
2023/03/25 21:34:58;;;;;;;3.75;1.83;;;;;;;6.25;81.35;99342.59;10125096;29;20056;-77
2023/03/25 21:40:04;;;;;;;6.55;1.92;;;;;;;6.46;81.27;99342.69;10119155;29;20049;-76
2023/03/25 21:45:09;;;;;;;4.97;1.70;;;;;;;6.47;80.77;99341.72;10129501;29;20059;-75
2023/03/25 21:50:15;;;;;;;7.93;3.25;;;;;;;6.41;80.91;99336.88;10130002;29;20052;-76
2023/03/25 21:55:21;;;;;;;1.88;1.38;;;;;;;6.40;80.24;99335.19;10123768;29;20131;-76
2023/03/25 22:00:24;;;;;;;16.42;2.67;;;;;;;6.25;81.14;99358.59;10120046;29;20554;-76
2023/03/25 22:05:31;;;;;;;9.23;2.88;;;;;;;6.12;82.41;99364.06;10114411;29;20064;-77
2023/03/25 22:10:35;;;;;;;4.97;3.47;;;;;;;6.22;81.85;99374.00;10121797;29;20056;-76
2023/03/25 22:15:38;;;;;;;9.73;3.15;;;;;;;6.27;82.02;99366.47;10117746;29;20063;-76
2023/03/25 22:20:41;;;;;;;7.28;2.42;;;;;;;6.38;81.52;99375.31;10171170;23;20139;-78
2023/03/25 22:25:46;;;;;;;8.90;3.08;;;;;;;6.36;81.88;99376.41;10150771;29;20032;-79
2023/03/25 22:30:48;;;;;;;7.28;2.55;;;;;;;6.12;82.38;99389.88;10162071;29;20044;-78
2023/03/25 22:35:52;;;;;;;9.25;2.17;;;;;;;6.01;82.50;99393.38;10167623;29;20443;-78
2023/03/25 22:40:56;;;;;;;14.55;3.35;;;;;;;6.17;82.98;99382.34;10153783;29;20050;-77
2023/03/25 22:46:00;;;;;;;6.47;3.08;;;;;;;6.27;82.47;99393.16;10180871;29;20088;-76
2023/03/25 22:51:05;;;;;;;8.20;2.15;;;;;;;6.19;82.55;99383.06;10160050;29;20059;-78
2023/03/25 22:56:10;;;;;;;8.07;3.05;;;;;;;6.46;81.09;99390.72;10139438;29;20076;-77
2023/03/25 23:01:19;;;;;;;4.75;2.33;;;;;;;6.31;82.07;99406.13;10137452;29;20496;-77
2023/03/25 23:06:22;;;;;;;7.97;2.85;;;;;;;6.38;82.10;99406.47;10137111;29;20037;-78
2023/03/25 23:11:28;;;;;;;8.18;3.47;;;;;;;6.21;83.11;99413.16;10139973;29;20579;-78
2023/03/25 23:16:33;;;;;;;7.82;3.35;;;;;;;6.45;81.78;99412.19;10150161;29;20571;-78
2023/03/25 23:21:36;;;;;;;11.25;3.40;;;;;;;6.57;81.03;99412.06;10143409;29;20056;-77
2023/03/25 23:26:41;;;;;;;3.60;2.60;;;;;;;6.25;81.10;99416.41;10144450;29;20427;-78
2023/03/25 23:31:44;;;;;;;20.67;3.40;;;;;;;6.37;80.72;99404.78;10155188;29;20080;-77
2023/03/25 23:36:47;;;;;;;13.10;4.07;;;;;;;6.66;80.54;99402.44;10166817;29;20048;-77
2023/03/25 23:41:51;;;;;;;5.95;2.65;;;;;;;6.29;80.41;99415.22;10147075;29;20467;-77
2023/03/25 23:46:54;;;;;;;5.57;2.78;;;;;;;6.52;79.38;99402.72;10172691;29;20492;-77
2023/03/25 23:51:58;;;;;;;8.90;3.05;;;;;;;6.49;79.11;99417.16;10163006;29;20051;-76
2023/03/25 23:57:03;;;;;;;11.02;3.60;;;;;;;7.02;77.52;99416.50;10158680;29;20398;-78
